Time;durP1;ratioP1;P1;durP2;ratioP2;P2;SDS_P1;SDS_P2;PMS_P1;PMS_P2;Temp;Humidity;BMP_temperature;BMP_pressure;BME280_temperature;BME280_humidity;BME280_pressure;Samples;Min_cycle;Max_cycle;Signal;HPM_P1;HPM_P2
2022/08/19 00:01:27;;;;;;;9.85;4.10;;;17.30;99.90;;;;;;4962918;28;37813;-58
2022/08/19 00:03:54;;;;;;;12.63;4.57;;;17.30;99.90;;;;;;4961321;28;36578;-58
2022/08/19 00:06:21;;;;;;;9.02;4.90;;;17.30;99.90;;;;;;4960235;28;36680;-57
2022/08/19 00:08:51;;;;;;;7.50;4.65;;;17.30;99.90;;;;;;4961516;28;37416;-57
2022/08/19 00:11:20;;;;;;;8.95;5.07;;;17.30;99.90;;;;;;4963151;28;38212;-57
2022/08/19 00:13:49;;;;;;;7.22;4.22;;;17.30;99.90;;;;;;4960539;28;37246;-57
2022/08/19 00:16:18;;;;;;;6.85;4.30;;;17.30;99.90;;;;;;4963405;28;38437;-57
2022/08/19 00:18:45;;;;;;;7.15;3.78;;;17.30;99.90;;;;;;4962156;28;38148;-58
2022/08/19 00:21:12;;;;;;;9.55;4.25;;;17.30;99.90;;;;;;4962606;28;39040;-57
2022/08/19 00:23:40;;;;;;;8.75;4.60;;;17.30;99.90;;;;;;4961693;28;37499;-58
2022/08/19 00:26:08;;;;;;;6.80;3.58;;;17.30;99.90;;;;;;4962992;28;37250;-57
2022/08/19 00:28:36;;;;;;;7.65;4.15;;;17.20;99.90;;;;;;4961324;28;38737;-57
2022/08/19 00:31:05;;;;;;;8.52;4.75;;;17.20;99.90;;;;;;4958605;28;38445;-58
2022/08/19 00:33:33;;;;;;;7.60;4.18;;;17.10;99.90;;;;;;4961236;28;39186;-58
2022/08/19 00:36:01;;;;;;;7.93;4.53;;;17.10;99.90;;;;;;4961213;28;36769;-58
2022/08/19 00:38:29;;;;;;;6.53;4.30;;;17.10;99.90;;;;;;4962785;28;37329;-58
2022/08/19 00:40:56;;;;;;;6.05;4.03;;;17.10;99.90;;;;;;4962113;28;38498;-57
2022/08/19 00:43:26;;;;;;;7.82;4.00;;;17.00;99.90;;;;;;4961542;28;37385;-57
2022/08/19 00:45:55;;;;;;;11.48;4.60;;;17.00;99.90;;;;;;4963617;28;36436;-57
2022/08/19 00:48:23;;;;;;;7.25;3.97;;;17.00;99.90;;;;;;4961204;28;37630;-58
2022/08/19 00:50:53;;;;;;;3.92;2.20;;;17.00;99.90;;;;;;4959930;28;38012;-57
2022/08/19 00:53:26;;;;;;;4.00;2.35;;;16.90;99.90;;;;;;4962946;28;37300;-57
2022/08/19 00:55:57;;;;;;;5.35;2.05;;;16.90;99.90;;;;;;4961862;28;36525;-57
2022/08/19 00:58:30;;;;;;;3.90;1.73;;;16.80;99.90;;;;;;4960454;28;36361;-58
2022/08/19 01:00:58;;;;;;;3.92;2.05;;;16.80;99.90;;;;;;4962205;28;37941;-58
2022/08/19 01:03:26;;;;;;;4.30;2.67;;;16.80;99.90;;;;;;4961084;28;38247;-57
2022/08/19 01:05:55;;;;;;;5.13;3.25;;;16.80;99.90;;;;;;4960970;28;35179;-57
2022/08/19 01:08:24;;;;;;;7.10;3.80;;;16.70;99.90;;;;;;4961472;28;37450;-57
2022/08/19 01:10:57;;;;;;;5.88;3.92;;;16.70;99.90;;;;;;4964416;28;38030;-57
2022/08/19 01:13:27;;;;;;;5.65;4.13;;;16.70;99.90;;;;;;4959540;28;37603;-58
2022/08/19 01:16:01;;;;;;;7.30;4.10;;;16.70;99.90;;;;;;4966053;28;37335;-58
2022/08/19 01:18:29;;;;;;;6.68;4.68;;;16.70;99.90;;;;;;4962477;28;37667;-58
2022/08/19 01:21:02;;;;;;;8.68;5.55;;;16.70;99.90;;;;;;4964898;28;38316;-57
2022/08/19 01:23:43;;;;;;;7.20;4.68;;;16.80;99.90;;;;;;4964863;28;39673;-57
2022/08/19 01:26:13;;;;;;;6.65;4.72;;;16.80;99.90;;;;;;4965599;28;36055;-57
2022/08/19 01:28:42;;;;;;;7.57;5.53;;;16.80;99.90;;;;;;4964092;28;37424;-57
2022/08/19 01:31:12;;;;;;;8.93;5.78;;;16.80;99.90;;;;;;4964826;28;40199;-57
2022/08/19 01:33:40;;;;;;;7.75;5.22;;;16.80;99.90;;;;;;4964855;28;38473;-58
2022/08/19 01:36:10;;;;;;;7.82;5.28;;;16.80;99.90;;;;;;4965109;28;36067;-57
2022/08/19 01:38:42;;;;;;;7.93;6.00;;;16.70;99.90;;;;;;4964109;28;37519;-57
2022/08/19 01:41:11;;;;;;;8.38;6.32;;;16.70;99.90;;;;;;4964201;28;38766;-57
2022/08/19 01:43:38;;;;;;;9.15;6.30;;;16.70;99.90;;;;;;4963262;28;38604;-57
2022/08/19 01:46:05;;;;;;;10.52;6.65;;;16.60;99.90;;;;;;4964623;28;37183;-57
2022/08/19 01:48:38;;;;;;;8.57;6.53;;;16.70;99.90;;;;;;4964325;28;37394;-57
2022/08/19 01:51:07;;;;;;;11.07;7.95;;;16.60;99.90;;;;;;4964863;28;39398;-57
2022/08/19 01:53:34;;;;;;;8.45;6.13;;;16.60;99.90;;;;;;4964765;28;39971;-57
2022/08/19 01:56:05;;;;;;;10.50;7.60;;;16.60;99.90;;;;;;4964819;28;36702;-57
2022/08/19 01:58:36;;;;;;;10.70;7.82;;;16.60;99.90;;;;;;4964331;28;37489;-57
2022/08/19 02:01:05;;;;;;;14.18;8.07;;;16.70;99.90;;;;;;4964912;28;39665;-57
2022/08/19 02:03:32;;;;;;;11.45;8.35;;;16.70;99.90;;;;;;4960124;28;37951;-57
2022/08/19 02:06:02;;;;;;;11.00;7.20;;;16.70;99.90;;;;;;4964609;28;36296;-57
2022/08/19 02:08:30;;;;;;;11.48;8.15;;;16.80;99.90;;;;;;4964136;28;37699;-57
2022/08/19 02:10:58;;;;;;;12.00;7.57;;;16.80;99.90;;;;;;4962881;28;38200;-57
2022/08/19 02:13:28;;;;;;;10.57;7.57;;;16.80;99.90;;;;;;4960628;28;37842;-57
2022/08/19 02:15:56;;;;;;;12.20;7.75;;;16.90;99.90;;;;;;4964027;28;35301;-57
2022/08/19 02:18:23;;;;;;;12.88;7.50;;;16.90;99.90;;;;;;4961616;28;38527;-58
2022/08/19 02:20:50;;;;;;;11.05;8.18;;;16.90;99.90;;;;;;4962630;28;38826;-57
2022/08/19 02:23:18;;;;;;;12.23;8.02;;;16.90;99.90;;;;;;4963202;28;37799;-57
2022/08/19 02:25:47;;;;;;;12.77;7.10;;;17.00;99.90;;;;;;4964196;28;37144;-58
2022/08/19 02:28:15;;;;;;;10.60;7.28;;;17.00;99.90;;;;;;4964269;28;37104;-57
2022/08/19 02:30:44;;;;;;;11.15;7.43;;;17.00;99.90;;;;;;4963014;28;38555;-57
2022/08/19 02:33:11;;;;;;;9.93;6.68;;;17.00;99.90;;;;;;4962627;28;37819;-57
2022/08/19 02:35:42;;;;;;;11.50;7.05;;;17.00;99.90;;;;;;4962614;28;37765;-57
2022/08/19 02:38:28;;;;;;;9.40;6.43;;;17.00;99.90;;;;;;4962979;28;37953;-58
2022/08/19 02:40:57;;;;;;;7.72;6.00;;;17.00;99.90;;;;;;4963024;28;37595;-57
2022/08/19 02:43:26;;;;;;;9.13;6.78;;;17.00;99.90;;;;;;4942430;28;36457;-57
2022/08/19 02:45:56;;;;;;;9.23;6.60;;;16.90;99.90;;;;;;4944291;28;37958;-57
2022/08/19 02:48:25;;;;;;;10.55;6.88;;;16.90;99.90;;;;;;4942527;28;37764;-57
2022/08/19 02:50:55;;;;;;;9.80;5.53;;;17.00;99.90;;;;;;4944575;28;37568;-57
2022/08/19 02:53:24;;;;;;;5.50;3.40;;;17.00;99.90;;;;;;4944279;28;37761;-57
2022/08/19 02:55:52;;;;;;;4.28;2.55;;;16.90;99.90;;;;;;4943201;28;36689;-58
2022/08/19 02:58:22;;;;;;;7.63;5.22;;;16.80;99.90;;;;;;4944684;28;37532;-58
2022/08/19 03:00:51;;;;;;;7.55;5.13;;;16.70;99.90;;;;;;4944777;28;37481;-57
2022/08/19 03:03:20;;;;;;;11.05;6.93;;;16.60;99.90;;;;;;4943694;28;36012;-57
2022/08/19 03:05:48;;;;;;;9.55;7.15;;;16.60;99.90;;;;;;4943253;28;35792;-57
2022/08/19 03:08:15;;;;;;;10.27;7.18;;;16.60;99.90;;;;;;4944260;28;36385;-57
2022/08/19 03:10:45;;;;;;;10.52;7.00;;;16.70;99.90;;;;;;4942594;28;40541;-57
2022/08/19 03:13:14;;;;;;;10.10;6.07;;;16.70;99.90;;;;;;4943562;28;36610;-58
2022/08/19 03:15:43;;;;;;;8.65;6.25;;;16.70;99.90;;;;;;4944808;28;36488;-57
2022/08/19 03:18:11;;;;;;;12.40;6.85;;;16.70;99.90;;;;;;4944692;28;39848;-58
2022/08/19 03:20:44;;;;;;;10.07;6.85;;;16.70;99.90;;;;;;4942831;28;38290;-57
2022/08/19 03:23:12;;;;;;;;;;;16.70;99.90;;;;;;4944766;28;38845;-57
2022/08/19 03:25:41;;;;;;;11.23;7.32;;;16.60;99.90;;;;;;4943257;28;36649;-57
2022/08/19 03:28:09;;;;;;;9.32;7.35;;;16.60;99.90;;;;;;4944914;28;37234;-57
2022/08/19 03:30:36;;;;;;;11.60;7.60;;;16.70;99.90;;;;;;4944014;28;38849;-57
2022/08/19 03:33:04;;;;;;;8.05;5.68;;;16.70;99.90;;;;;;4944293;28;36436;-58
2022/08/19 03:35:31;;;;;;;7.55;5.75;;;16.70;99.90;;;;;;4943583;28;36073;-57
2022/08/19 03:38:00;;;;;;;9.32;6.53;;;16.70;99.90;;;;;;4942654;28;37559;-57
2022/08/19 03:40:29;;;;;;;9.57;6.53;;;16.70;99.90;;;;;;4937963;28;38249;-57
2022/08/19 03:42:57;;;;;;;11.65;7.75;;;16.70;99.90;;;;;;4959709;28;37312;-57
2022/08/19 03:45:24;;;;;;;10.93;7.88;;;16.70;99.90;;;;;;4962048;28;36390;-57
2022/08/19 03:47:51;;;;;;;11.40;7.65;;;16.70;99.90;;;;;;4962980;28;36479;-57
2022/08/19 03:50:19;;;;;;;10.27;7.32;;;16.60;99.90;;;;;;4963926;28;37535;-57
2022/08/19 03:52:50;;;;;;;10.52;7.07;;;16.70;99.90;;;;;;4963113;28;38313;-57
2022/08/19 03:55:19;;;;;;;10.15;7.47;;;16.70;99.90;;;;;;4961239;28;36726;-57
2022/08/19 03:57:48;;;;;;;9.27;6.88;;;16.70;99.90;;;;;;4960786;28;37533;-57
2022/08/19 04:00:17;;;;;;;9.43;6.75;;;16.70;99.90;;;;;;4961795;28;38244;-57
2022/08/19 04:02:44;;;;;;;10.52;7.40;;;16.70;99.90;;;;;;4963084;28;37225;-57
2022/08/19 04:05:13;;;;;;;9.90;7.38;;;16.70;99.90;;;;;;4962917;28;37196;-58
2022/08/19 04:07:41;;;;;;;10.63;6.90;;;16.70;99.90;;;;;;4962489;28;37579;-58
2022/08/19 04:10:09;;;;;;;11.23;7.13;;;16.70;99.90;;;;;;4962062;28;39008;-57
2022/08/19 04:12:39;;;;;;;8.05;6.10;;;16.70;99.90;;;;;;4961398;28;37997;-58
2022/08/19 04:15:08;;;;;;;10.52;7.93;;;16.70;99.90;;;;;;4961543;28;36560;-57
2022/08/19 04:17:35;;;;;;;12.77;8.20;;;16.80;99.90;;;;;;4963059;28;38107;-57
2022/08/19 04:20:02;;;;;;;6.45;3.97;;;16.80;99.90;;;;;;4962559;28;38635;-57
2022/08/19 04:22:30;;;;;;;6.63;3.92;;;16.70;99.90;;;;;;4962570;28;38578;-57
2022/08/19 04:24:57;;;;;;;9.55;4.47;;;16.70;99.90;;;;;;4962374;28;37837;-57
2022/08/19 04:27:24;;;;;;;5.70;4.00;;;16.60;99.90;;;;;;4957876;28;37288;-57
2022/08/19 04:29:54;;;;;;;10.50;4.30;;;16.60;99.90;;;;;;4961193;28;37678;-57
2022/08/19 04:32:22;;;;;;;7.18;3.78;;;16.60;99.90;;;;;;4960837;28;36630;-57
2022/08/19 04:34:49;;;;;;;7.05;4.75;;;16.50;99.90;;;;;;4963430;28;35242;-57
2022/08/19 04:37:17;;;;;;;5.78;3.08;;;16.50;99.90;;;;;;4962264;28;37474;-57
2022/08/19 04:42:41;;;;;;;7.40;4.35;;;16.40;99.90;;;;;;4960203;28;38373;-57
2022/08/19 04:45:14;;;;;;;6.45;3.65;;;16.40;99.90;;;;;;4963005;28;20173;-57
2022/08/19 04:47:43;;;;;;;4.50;2.78;;;16.30;99.90;;;;;;4962558;28;40314;-57
2022/08/19 04:50:11;;;;;;;6.32;4.13;;;16.30;99.90;;;;;;4961463;28;37100;-57
2022/08/19 04:52:42;;;;;;;7.60;3.22;;;16.30;99.90;;;;;;4961560;28;37612;-58
2022/08/19 04:55:10;;;;;;;7.03;2.72;;;16.30;99.90;;;;;;4963439;28;36303;-57
2022/08/19 04:57:39;;;;;;;4.88;2.85;;;16.30;99.90;;;;;;4961758;28;37603;-57
2022/08/19 05:00:10;;;;;;;6.20;3.22;;;16.20;99.90;;;;;;4962414;28;37810;-57
2022/08/19 05:02:38;;;;;;;6.22;3.95;;;16.20;99.90;;;;;;4960803;28;38452;-57
2022/08/19 05:05:06;;;;;;;7.57;5.03;;;16.20;99.90;;;;;;4962489;28;37674;-57
2022/08/19 05:07:33;;;;;;;7.30;4.82;;;16.20;99.90;;;;;;4961733;28;36484;-57
2022/08/19 05:10:01;;;;;;;6.40;3.47;;;16.30;99.90;;;;;;4960731;28;37987;-57
2022/08/19 05:12:29;;;;;;;6.28;3.53;;;16.30;99.90;;;;;;4959795;28;38096;-57
2022/08/19 05:14:57;;;;;;;5.57;3.20;;;16.30;99.90;;;;;;4961384;28;36806;-57
2022/08/19 05:17:27;;;;;;;6.15;3.63;;;16.40;99.90;;;;;;4960184;28;38280;-57
2022/08/19 05:22:39;;;;;;;9.80;6.50;;;16.60;99.90;;;;;;4960164;28;37682;-58
2022/08/19 05:25:09;;;;;;;9.95;7.13;;;16.70;99.90;;;;;;4962743;28;36505;-57
2022/08/19 05:27:37;;;;;;;8.30;6.40;;;16.90;99.90;;;;;;4961339;28;39245;-57
2022/08/19 05:30:05;;;;;;;9.45;6.43;;;17.00;99.90;;;;;;4962371;28;36851;-57
2022/08/19 05:32:34;;;;;;;14.02;8.27;;;17.20;99.90;;;;;;4960909;28;37487;-57
2022/08/19 05:35:02;;;;;;;12.48;8.70;;;17.30;99.90;;;;;;4962323;28;35280;-57
2022/08/19 05:37:29;;;;;;;11.27;8.60;;;17.40;99.90;;;;;;4956953;28;37128;-57
2022/08/19 05:39:56;;;;;;;10.80;8.25;;;17.60;99.90;;;;;;4959543;28;38531;-57
2022/08/19 05:42:25;;;;;;;14.23;8.48;;;17.70;99.90;;;;;;4957843;28;36719;-58
2022/08/19 05:44:52;;;;;;;13.93;9.82;;;17.80;99.90;;;;;;4960165;28;35595;-57
2022/08/19 05:47:21;;;;;;;13.88;9.30;;;17.90;99.90;;;;;;4961049;28;37545;-57
2022/08/19 05:49:50;;;;;;;12.48;9.55;;;18.00;99.90;;;;;;4962764;28;38133;-57
2022/08/19 05:52:18;;;;;;;11.82;8.90;;;18.10;99.90;;;;;;4963110;28;38149;-57
2022/08/19 05:54:47;;;;;;;10.18;7.90;;;18.20;99.90;;;;;;4961135;28;37616;-57
2022/08/19 05:57:15;;;;;;;11.90;8.75;;;18.30;99.90;;;;;;4965054;28;37968;-57
2022/08/19 05:59:43;;;;;;;13.93;9.70;;;18.30;99.90;;;;;;4965945;28;38871;-57
2022/08/19 06:02:11;;;;;;;11.13;8.13;;;18.50;99.90;;;;;;4965136;28;37221;-57
2022/08/19 06:04:39;;;;;;;11.73;8.75;;;18.50;99.90;;;;;;4966143;28;36889;-58
2022/08/19 06:07:07;;;;;;;10.90;8.45;;;18.60;99.90;;;;;;4965812;28;37550;-58
2022/08/19 06:09:35;;;;;;;12.77;9.30;;;18.70;99.90;;;;;;4961818;28;39421;-58
2022/08/19 06:12:04;;;;;;;11.18;8.00;;;18.70;99.90;;;;;;4964868;28;36508;-58
2022/08/19 06:14:34;;;;;;;10.93;8.02;;;18.80;99.90;;;;;;4964748;28;37695;-57
2022/08/19 06:17:02;;;;;;;10.25;8.18;;;18.90;99.90;;;;;;4962596;28;39806;-57
2022/08/19 06:19:31;;;;;;;10.50;8.10;;;19.00;99.90;;;;;;4960548;28;38798;-58
2022/08/19 06:22:00;;;;;;;12.48;8.18;;;19.00;99.90;;;;;;4965839;28;37628;-57
2022/08/19 06:24:31;;;;;;;13.77;8.65;;;19.10;99.90;;;;;;4963800;28;35204;-57
2022/08/19 06:27:00;;;;;;;11.07;8.25;;;19.20;99.90;;;;;;4964112;28;37621;-57
2022/08/19 06:29:29;;;;;;;11.77;9.20;;;19.20;99.90;;;;;;4963300;28;38389;-57
2022/08/19 06:31:59;;;;;;;11.77;8.70;;;19.20;99.90;;;;;;4963060;28;36663;-57
2022/08/19 06:34:28;;;;;;;15.75;8.90;;;19.30;99.90;;;;;;4964220;28;36675;-58
2022/08/19 06:37:00;;;;;;;13.07;8.63;;;19.30;99.90;;;;;;4964027;28;39520;-57
2022/08/19 06:39:32;;;;;;;13.80;9.10;;;19.30;99.90;;;;;;4962154;28;38004;-57
2022/08/19 06:42:01;;;;;;;11.57;8.90;;;19.40;99.90;;;;;;4963199;28;36742;-57
2022/08/19 06:44:35;;;;;;;12.45;8.35;;;19.40;99.90;;;;;;4963847;28;36978;-57
2022/08/19 06:47:04;;;;;;;12.60;8.77;;;19.50;99.90;;;;;;4963741;28;37203;-57
2022/08/19 06:49:31;;;;;;;13.52;8.25;;;19.40;99.90;;;;;;4965453;28;36851;-57
2022/08/19 06:51:59;;;;;;;11.95;8.00;;;19.50;99.90;;;;;;4965163;28;37864;-57
2022/08/19 06:54:29;;;;;;;11.07;7.95;;;19.50;99.90;;;;;;4965135;28;37725;-57
2022/08/19 06:56:56;;;;;;;10.48;8.13;;;19.60;99.90;;;;;;4965356;28;36361;-57
2022/08/19 06:59:26;;;;;;;13.77;7.90;;;19.60;99.90;;;;;;4963891;28;37732;-58
2022/08/19 07:01:56;;;;;;;11.52;8.27;;;19.70;99.90;;;;;;4960778;28;36442;-57
2022/08/19 07:04:25;;;;;;;12.38;8.65;;;19.70;99.90;;;;;;4964529;28;36778;-58
2022/08/19 07:06:58;;;;;;;11.80;7.82;;;19.80;99.90;;;;;;4964755;28;37652;-58
2022/08/19 07:09:26;;;;;;;;;;;19.80;99.90;;;;;;4960296;28;38243;-58
2022/08/19 07:11:55;;;;;;;11.88;8.52;;;19.80;99.90;;;;;;4964019;28;39005;-57
2022/08/19 07:14:26;;;;;;;18.60;8.52;;;19.90;99.90;;;;;;4963425;28;36218;-58
2022/08/19 07:16:55;;;;;;;14.80;9.65;;;19.90;99.90;;;;;;4963688;28;36307;-58
2022/08/19 07:19:25;;;;;;;12.45;9.07;;;20.00;99.90;;;;;;4960323;28;38227;-58
2022/08/19 07:21:53;;;;;;;13.43;9.15;;;20.00;99.90;;;;;;4964502;28;37481;-58
2022/08/19 07:24:23;;;;;;;13.05;9.32;;;20.00;99.90;;;;;;4964122;28;37634;-58
2022/08/19 07:26:51;;;;;;;12.75;9.75;;;20.10;99.90;;;;;;4962872;28;36323;-58
2022/08/19 07:29:22;;;;;;;13.25;8.90;;;20.20;99.90;;;;;;4962802;28;37921;-57
2022/08/19 07:31:50;;;;;;;14.07;9.02;;;20.10;99.90;;;;;;4964246;28;37912;-58
2022/08/19 07:34:19;;;;;;;15.57;9.70;;;20.20;99.90;;;;;;4964021;28;36628;-57
2022/08/19 07:36:47;;;;;;;13.32;9.38;;;20.20;99.90;;;;;;4964214;28;37361;-58
2022/08/19 07:39:20;;;;;;;13.55;10.65;;;20.40;99.90;;;;;;4963274;28;38292;-58
2022/08/19 07:41:48;;;;;;;12.80;8.27;;;20.40;99.90;;;;;;4963486;28;37645;-58
2022/08/19 07:44:16;;;;;;;10.10;8.25;;;20.50;99.90;;;;;;4961921;28;36357;-58
2022/08/19 07:46:49;;;;;;;12.10;9.23;;;20.50;99.90;;;;;;4964618;28;37561;-57
2022/08/19 07:49:18;;;;;;;11.30;8.45;;;20.60;99.90;;;;;;4964111;28;37121;-58
2022/08/19 07:51:47;;;;;;;12.50;9.23;;;20.60;99.90;;;;;;4964467;28;38153;-58
2022/08/19 07:54:15;;;;;;;12.05;8.68;;;20.60;99.90;;;;;;4964195;28;37009;-57
2022/08/19 07:56:42;;;;;;;11.32;8.52;;;20.70;99.90;;;;;;4964244;28;38420;-58
2022/08/19 07:59:10;;;;;;;10.32;8.25;;;20.70;99.90;;;;;;4963130;28;38078;-58
2022/08/19 08:01:39;;;;;;;12.80;8.93;;;20.80;99.90;;;;;;4964264;28;37659;-58
2022/08/19 08:09:41;;;;;;;11.88;8.93;;;21.00;99.90;;;;;;4963415;28;40406;-58
2022/08/19 08:12:12;;;;;;;11.75;9.10;;;21.00;99.90;;;;;;4963526;28;37345;-58
2022/08/19 08:14:41;;;;;;;11.30;8.15;;;21.10;99.90;;;;;;4963325;28;37267;-58
2022/08/19 08:17:10;;;;;;;12.45;9.82;;;21.20;99.90;;;;;;4963383;28;37583;-58
2022/08/19 08:19:40;;;;;;;11.77;8.95;;;21.20;99.90;;;;;;4963146;28;39718;-58
2022/08/19 08:23:21;;;;;;;16.17;9.98;;;21.30;99.90;;;;;;4963256;28;37565;-57
2022/08/19 08:24:58;;;;;;;13.15;9.70;;;21.40;99.90;;;;;;4959068;28;36063;-58
2022/08/19 08:27:25;;;;;;;14.02;9.98;;;21.50;99.90;;;;;;4962248;28;38378;-58
2022/08/19 08:29:53;;;;;;;11.32;9.68;;;21.50;99.90;;;;;;4961770;28;36899;-58
2022/08/19 08:32:20;;;;;;;11.55;9.77;;;21.60;99.90;;;;;;4963411;28;38375;-58
2022/08/19 08:34:48;;;;;;;13.35;9.23;;;21.60;99.90;;;;;;4962721;28;35394;-58
2022/08/19 08:37:16;;;;;;;10.82;9.15;;;21.70;99.90;;;;;;4963336;28;38267;-58
2022/08/19 08:39:43;;;;;;;11.80;9.30;;;21.70;99.90;;;;;;4962998;28;37503;-57
2022/08/19 08:42:18;;;;;;;10.50;8.88;;;21.90;99.90;;;;;;4962634;28;39033;-58
2022/08/19 08:44:57;;;;;;;14.98;9.90;;;21.90;99.90;;;;;;4961514;28;36882;-58
2022/08/19 08:47:27;;;;;;;11.10;7.70;;;22.10;99.90;;;;;;4963881;28;36316;-58
2022/08/19 08:50:00;;;;;;;9.43;7.60;;;22.20;99.90;;;;;;4962799;28;38759;-58
2022/08/19 08:52:30;;;;;;;10.43;8.32;;;22.30;99.90;;;;;;4961310;28;39135;-58
2022/08/19 08:55:01;;;;;;;11.38;8.13;;;22.40;99.90;;;;;;4966728;28;36473;-58
2022/08/19 08:57:33;;;;;;;10.60;8.70;;;22.40;99.90;;;;;;4966592;28;37522;-58
2022/08/19 09:00:04;;;;;;;11.50;8.23;;;22.50;99.90;;;;;;4964983;28;39613;-58
2022/08/19 09:02:32;;;;;;;11.32;8.23;;;22.60;99.90;;;;;;4965752;28;37772;-58
2022/08/19 09:05:00;;;;;;;11.02;7.65;;;22.60;99.90;;;;;;4966803;28;36253;-58
2022/08/19 09:07:41;;;;;;;9.95;8.10;;;22.80;99.90;;;;;;4966050;28;36371;-58
2022/08/19 09:10:15;;;;;;;10.57;8.27;;;22.80;99.90;;;;;;4966306;28;38816;-58
2022/08/19 09:12:50;;;;;;;11.20;8.25;;;23.00;99.90;;;;;;4964847;28;39167;-58
2022/08/19 09:15:32;;;;;;;17.60;7.82;;;23.10;99.90;;;;;;4965076;28;35551;-58
2022/08/19 09:18:03;;;;;;;11.07;8.65;;;23.30;99.90;;;;;;4966205;28;38428;-58
2022/08/19 09:20:32;;;;;;;10.27;7.50;;;23.40;99.90;;;;;;4966724;28;38117;-58
2022/08/19 09:22:59;;;;;;;10.68;7.63;;;23.50;99.90;;;;;;4966673;28;37892;-58
2022/08/19 09:25:27;;;;;;;11.82;8.43;;;23.60;99.90;;;;;;4966633;28;35406;-58
2022/08/19 09:27:56;;;;;;;10.77;8.63;;;23.70;99.90;;;;;;4965688;28;36923;-58
2022/08/19 09:30:27;;;;;;;9.77;7.38;;;23.70;99.90;;;;;;4969966;28;37887;-58
2022/08/19 09:32:55;;;;;;;10.38;8.10;;;23.90;99.90;;;;;;4970872;28;38034;-58
2022/08/19 09:35:24;;;;;;;11.45;7.25;;;24.00;99.90;;;;;;4966676;28;38116;-58
2022/08/19 09:37:54;;;;;;;9.98;7.75;;;24.10;99.90;;;;;;4961077;28;36204;-58
2022/08/19 09:40:21;;;;;;;10.90;9.43;;;24.20;99.90;;;;;;4964219;28;39039;-58
2022/08/19 09:42:49;;;;;;;11.73;9.52;;;24.30;99.70;;;;;;4964262;28;39152;-58
2022/08/19 09:45:21;;;;;;;11.65;8.40;;;24.40;99.30;;;;;;4965470;28;36646;-58
2022/08/19 09:47:48;;;;;;;10.23;9.00;;;24.50;99.20;;;;;;4965965;28;37179;-58
2022/08/19 09:50:17;;;;;;;11.32;7.93;;;24.50;98.90;;;;;;4964072;28;38877;-58
2022/08/19 09:52:45;;;;;;;10.82;8.27;;;24.60;99.00;;;;;;4965709;28;38058;-58
2022/08/19 09:55:15;;;;;;;10.18;9.10;;;24.70;98.60;;;;;;4964896;28;37451;-58
2022/08/19 09:57:43;;;;;;;13.43;9.82;;;24.70;98.60;;;;;;4962552;28;36453;-58
2022/08/19 10:00:11;;;;;;;17.42;8.32;;;24.80;98.40;;;;;;4962749;28;38261;-58
2022/08/19 10:02:38;;;;;;;11.45;9.20;;;24.90;98.10;;;;;;4962682;28;38734;-58
2022/08/19 10:07:51;;;;;;;9.98;7.85;;;24.90;97.60;;;;;;4965020;28;38791;-58
2022/08/19 10:10:20;;;;;;;12.70;8.27;;;25.00;98.00;;;;;;4964089;28;38148;-58
2022/08/19 10:12:48;;;;;;;13.02;9.77;;;25.00;98.10;;;;;;4965459;28;37939;-58
2022/08/19 10:15:16;;;;;;;12.77;9.18;;;25.10;97.70;;;;;;4964426;28;36514;-58
2022/08/19 10:17:43;;;;;;;9.65;8.05;;;25.20;97.60;;;;;;4965645;28;36364;-58
2022/08/19 10:20:11;;;;;;;11.18;8.52;;;25.30;97.70;;;;;;4964756;28;39792;-58
2022/08/19 10:22:38;;;;;;;9.60;7.18;;;25.30;97.40;;;;;;4965512;28;37962;-58
2022/08/19 10:25:07;;;;;;;11.73;7.68;;;25.40;97.10;;;;;;4968172;28;36172;-58
2022/08/19 10:27:36;;;;;;;12.00;9.50;;;25.40;97.10;;;;;;4969018;28;37333;-58
2022/08/19 10:30:04;;;;;;;12.88;9.13;;;25.50;96.80;;;;;;4969406;28;39424;-58
2022/08/19 10:32:32;;;;;;;11.13;8.63;;;25.60;96.80;;;;;;4968157;28;38460;-58
2022/08/19 10:34:59;;;;;;;15.63;10.27;;;25.70;96.90;;;;;;4968682;28;35982;-58
2022/08/19 10:37:26;;;;;;;14.55;10.52;;;25.70;96.40;;;;;;4965352;28;38594;-58
2022/08/19 10:39:54;;;;;;;12.50;8.82;;;25.70;96.40;;;;;;4968210;28;36957;-58
2022/08/19 10:42:21;;;;;;;11.90;8.30;;;25.80;96.50;;;;;;4968548;28;37840;-58
2022/08/19 10:44:50;;;;;;;11.00;9.85;;;25.80;95.70;;;;;;4968559;28;37338;-58
2022/08/19 10:47:17;;;;;;;10.63;9.02;;;25.80;95.60;;;;;;4969007;28;37582;-58
2022/08/19 10:52:34;;;;;;;14.60;12.52;;;25.80;96.40;;;;;;4971034;28;39909;-58
2022/08/19 10:57:47;;;;;;;13.60;10.45;;;25.90;96.20;;;;;;4971475;28;38767;-58
2022/08/19 11:00:17;;;;;;;12.27;10.98;;;26.00;96.00;;;;;;4971988;28;39346;-58
2022/08/19 11:02:44;;;;;;;11.82;10.40;;;25.90;95.50;;;;;;4969872;28;38010;-58
2022/08/19 11:05:11;;;;;;;11.85;10.10;;;25.70;95.70;;;;;;4972532;28;36648;-58
2022/08/19 11:07:39;;;;;;;11.43;9.95;;;25.70;96.20;;;;;;4970750;28;37445;-58
2022/08/19 11:10:09;;;;;;;12.65;10.30;;;25.80;96.40;;;;;;4970682;28;38061;-58
2022/08/19 11:12:38;;;;;;;14.70;9.90;;;25.80;96.50;;;;;;4969605;28;37765;-58
2022/08/19 11:15:10;;;;;;;9.40;8.13;;;25.80;96.70;;;;;;4969677;28;35442;-58
2022/08/19 11:17:42;;;;;;;10.82;9.70;;;25.90;96.20;;;;;;4970947;28;36497;-58
2022/08/19 11:20:11;;;;;;;11.73;10.00;;;26.10;95.30;;;;;;4972865;28;39083;-58
2022/08/19 11:22:40;;;;;;;12.32;9.65;;;26.20;95.10;;;;;;4971939;28;38491;-58
2022/08/19 11:25:08;;;;;;;11.02;7.85;;;26.20;95.50;;;;;;4971400;28;37600;-58
2022/08/19 11:27:41;;;;;;;11.77;8.93;;;26.20;95.60;;;;;;4973006;28;37315;-58
2022/08/19 11:30:11;;;;;;;11.93;8.55;;;26.10;95.70;;;;;;4972901;28;36069;-58
2022/08/19 11:32:39;;;;;;;11.88;9.98;;;25.90;95.50;;;;;;4972812;28;37662;-58
2022/08/19 11:35:08;;;;;;;10.10;9.00;;;25.80;95.60;;;;;;4972897;28;37497;-58
2022/08/19 11:37:37;;;;;;;12.85;9.93;;;25.60;95.80;;;;;;4972251;28;39290;-58
2022/08/19 11:40:06;;;;;;;11.73;10.35;;;25.50;96.10;;;;;;4972409;28;39044;-60
2022/08/19 11:45:19;;;;;;;9.90;8.27;;;25.20;95.80;;;;;;4972217;28;37729;-58
2022/08/19 11:47:48;;;;;;;14.25;8.48;;;25.10;95.90;;;;;;4972573;28;37555;-58
2022/08/19 11:50:16;;;;;;;12.95;8.27;;;25.00;95.90;;;;;;4971665;28;36878;-58
2022/08/19 11:52:44;;;;;;;13.93;10.35;;;25.10;96.70;;;;;;4969763;28;37582;-58
2022/08/19 11:55:12;;;;;;;12.10;8.70;;;25.10;96.20;;;;;;4972046;28;35183;-58
2022/08/19 11:57:40;;;;;;;10.35;8.05;;;25.10;96.10;;;;;;4972223;28;40101;-58
2022/08/19 12:00:10;;;;;;;12.05;7.00;;;25.00;95.90;;;;;;4972100;28;38665;-58
2022/08/19 12:02:37;;;;;;;10.57;8.25;;;25.00;95.90;;;;;;4972386;28;37490;-58
2022/08/19 12:05:07;;;;;;;9.55;7.22;;;24.90;95.90;;;;;;4972014;28;38519;-58
2022/08/19 12:07:35;;;;;;;9.63;7.22;;;24.80;96.30;;;;;;4971578;28;36284;-59
2022/08/19 12:10:03;;;;;;;9.10;7.93;;;24.80;96.30;;;;;;4972523;28;38503;-58
2022/08/19 12:12:30;;;;;;;12.27;7.95;;;24.70;96.10;;;;;;4970665;28;38322;-58
2022/08/19 12:14:58;;;;;;;10.00;7.55;;;24.70;96.30;;;;;;4971701;28;37588;-58
2022/08/19 12:17:26;;;;;;;12.48;8.68;;;24.70;96.40;;;;;;4971741;28;36262;-58
2022/08/19 12:19:53;;;;;;;10.65;7.95;;;24.70;96.40;;;;;;4972138;28;39319;-58
2022/08/19 12:22:22;;;;;;;12.02;8.77;;;24.80;96.30;;;;;;4971755;28;38845;-58
2022/08/19 12:24:50;;;;;;;11.25;7.85;;;24.80;96.10;;;;;;4972469;28;36978;-58
2022/08/19 12:27:17;;;;;;;11.43;7.65;;;24.70;96.70;;;;;;4970595;28;37652;-58
2022/08/19 12:29:45;;;;;;;10.07;6.88;;;24.80;96.10;;;;;;4970928;28;36815;-58
2022/08/19 12:32:12;;;;;;;9.52;7.35;;;24.90;96.20;;;;;;4971777;28;38944;-58
2022/08/19 12:34:40;;;;;;;14.50;7.90;;;24.80;95.80;;;;;;4971841;28;37054;-58
2022/08/19 12:37:08;;;;;;;10.70;6.55;;;24.80;96.10;;;;;;4971576;28;38255;-58
2022/08/19 12:39:39;;;;;;;9.07;6.50;;;24.80;95.90;;;;;;4971714;28;38746;-58
2022/08/19 12:42:08;;;;;;;9.95;7.22;;;24.70;95.90;;;;;;4971662;28;37807;-58
2022/08/19 12:44:36;;;;;;;11.07;8.15;;;24.70;96.30;;;;;;4970689;28;37962;-58
2022/08/19 12:47:04;;;;;;;12.85;8.63;;;24.70;96.50;;;;;;4971150;28;37653;-58
2022/08/19 12:49:33;;;;;;;11.77;7.43;;;24.60;96.80;;;;;;4971030;28;38138;-58
2022/08/19 12:52:01;;;;;;;9.63;7.97;;;24.60;97.00;;;;;;4971653;28;38497;-58
2022/08/19 12:54:30;;;;;;;11.00;7.75;;;24.50;97.10;;;;;;4972422;28;36358;-58
2022/08/19 12:56:59;;;;;;;12.30;8.98;;;24.40;97.20;;;;;;4971606;28;37445;-58
2022/08/19 12:59:27;;;;;;;9.52;7.47;;;24.40;97.30;;;;;;4970465;28;36964;-58
2022/08/19 13:01:54;;;;;;;14.95;9.65;;;24.40;97.80;;;;;;4971708;28;37639;-58
2022/08/19 13:04:22;;;;;;;14.65;9.88;;;24.30;97.80;;;;;;4973268;28;36556;-58
2022/08/19 13:06:49;;;;;;;13.40;9.45;;;24.40;98.00;;;;;;4973862;28;36211;-58
2022/08/19 13:09:16;;;;;;;15.60;9.25;;;24.40;98.00;;;;;;4975191;28;38285;-58
2022/08/19 13:11:44;;;;;;;13.75;10.15;;;24.60;98.10;;;;;;4974177;28;38824;-58